Time;durP1;ratioP1;P1;durP2;ratioP2;P2;SDS_P1;SDS_P2;PMS_P1;PMS_P2;Temp;Humidity;BMP_temperature;BMP_pressure;BME280_temperature;BME280_humidity;BME280_pressure;Samples;Min_cycle;Max_cycle;Signal;HPM_P1;HPM_P2
2021/08/23 00:00:15;;;;;;;11.18;7.30;;;;;;;18.99;67.23;101509.05;1788160;79;26478;-60
2021/08/23 00:02:44;;;;;;;22.15;8.38;;;;;;;19.00;67.21;101499.84;1787968;80;26417;-60
2021/08/23 00:05:12;;;;;;;10.60;7.78;;;;;;;19.11;67.74;101502.70;1807709;78;25864;-60
2021/08/23 00:07:39;;;;;;;15.95;8.20;;;;;;;19.22;67.71;101506.43;1794251;79;25808;-60
2021/08/23 00:10:08;;;;;;;11.25;8.10;;;;;;;19.30;66.93;101509.13;1826428;78;26477;-60
2021/08/23 00:12:35;;;;;;;25.82;8.20;;;;;;;19.44;66.68;101512.13;1792502;79;25759;-59
2021/08/23 00:15:05;;;;;;;20.15;7.47;;;;;;;19.55;66.43;101508.48;1805119;77;28105;-59
2021/08/23 00:17:32;;;;;;;13.72;8.03;;;;;;;19.67;66.15;101507.60;1788076;80;25968;-59
2021/08/23 00:19:59;;;;;;;23.98;7.53;;;;;;;19.77;65.96;101506.00;1787869;80;25868;-59
2021/08/23 00:22:32;;;;;;;15.10;7.35;;;;;;;19.88;65.80;101506.66;1787834;80;26425;-59
2021/08/23 00:25:00;;;;;;;;;;;;;;;19.92;65.57;101505.25;1790948;80;25735;-59
2021/08/23 00:27:30;;;;;;;17.48;7.40;;;;;;;19.98;65.18;101512.22;1788129;80;27468;-60
2021/08/23 00:29:57;;;;;;;17.40;8.00;;;;;;;20.04;65.05;101520.20;1800804;79;25811;-59
2021/08/23 00:32:25;;;;;;;18.00;8.13;;;;;;;20.09;64.99;101522.40;1793136;79;26435;-60
2021/08/23 00:34:52;;;;;;;12.47;8.00;;;;;;;20.11;64.77;101516.25;1794944;79;25763;-59
2021/08/23 00:37:19;;;;;;;13.75;7.17;;;;;;;20.13;64.55;101521.85;1801061;79;25835;-59
2021/08/23 00:39:46;;;;;;;16.37;8.75;;;;;;;20.16;64.26;101517.91;1800941;79;27549;-59
2021/08/23 00:42:13;;;;;;;17.70;8.28;;;;;;;20.18;63.95;101513.95;1800973;79;25751;-59
2021/08/23 00:44:42;;;;;;;16.25;7.47;;;;;;;20.21;63.90;101515.99;1826929;78;25738;-60
2021/08/23 00:47:10;;;;;;;16.27;7.83;;;;;;;20.19;63.80;101512.09;1771073;78;26439;-60
2021/08/23 00:49:38;;;;;;;20.23;7.85;;;;;;;20.16;63.52;101507.84;1774764;80;25823;-59
2021/08/23 00:52:08;;;;;;;15.10;8.30;;;;;;;20.16;63.43;101508.34;1779689;80;28177;-60
2021/08/23 00:54:36;;;;;;;16.32;8.28;;;;;;;20.16;63.41;101501.52;1789869;79;25798;-59
2021/08/23 00:57:07;;;;;;;30.85;9.18;;;;;;;20.18;63.36;101504.39;1796463;79;25694;-60
2021/08/23 00:59:40;;;;;;;12.98;8.23;;;;;;;20.18;63.97;101509.85;1798058;79;26455;-59
2021/08/23 01:02:36;;;;;;;13.50;7.22;;;;;;;20.17;64.16;101504.05;1798148;79;25768;-60
2021/08/23 01:05:16;;;;;;;13.83;7.37;;;;;;;20.14;64.55;101494.01;1798146;79;27367;-60
2021/08/23 01:07:54;;;;;;;13.58;7.55;;;;;;;20.08;65.13;101504.30;1796048;78;25690;-60
2021/08/23 01:10:38;;;;;;;15.72;7.70;;;;;;;19.99;66.06;101500.80;1795410;78;25773;-60
2021/08/23 01:13:06;;;;;;;10.70;6.80;;;;;;;19.85;66.19;101494.23;1796011;79;26303;-60
2021/08/23 01:15:33;;;;;;;11.22;6.95;;;;;;;19.78;66.57;101483.63;1796336;79;25821;-60
2021/08/23 01:18:00;;;;;;;11.80;6.80;;;;;;;19.77;66.45;101489.62;1796309;79;27467;-60
2021/08/23 01:20:27;;;;;;;16.95;7.35;;;;;;;19.77;67.48;101488.75;1797912;79;25702;-60
2021/08/23 01:22:55;;;;;;;11.73;6.17;;;;;;;19.74;66.78;101484.52;1797551;79;26462;-60
2021/08/23 01:25:29;;;;;;;11.83;6.78;;;;;;;19.74;67.71;101482.31;1798031;79;25774;-60
2021/08/23 01:28:26;;;;;;;13.85;8.08;;;;;;;19.70;67.07;101479.93;1798116;79;25730;-59
2021/08/23 01:31:21;;;;;;;13.62;7.35;;;;;;;19.71;67.37;101478.91;1768725;79;27509;-59
2021/08/23 01:33:50;;;;;;;14.65;7.80;;;;;;;19.76;67.86;101487.92;1781317;80;26204;-59
2021/08/23 01:36:17;;;;;;;19.80;7.58;;;;;;;19.76;70.17;101483.83;1797923;79;25810;-60
2021/08/23 01:38:44;;;;;;;14.28;7.33;;;;;;;19.64;70.22;101482.02;1786163;79;25865;-60
2021/08/23 01:41:12;;;;;;;16.40;7.45;;;;;;;19.66;70.11;101482.70;1745935;79;25715;-60
2021/08/23 01:43:39;;;;;;;15.43;7.17;;;;;;;19.68;70.49;101487.97;1796129;79;27432;-60
2021/08/23 01:46:06;;;;;;;29.90;7.15;;;;;;;19.69;70.54;101483.69;1797680;79;26413;-60
2021/08/23 01:48:33;;;;;;;12.88;6.83;;;;;;;19.75;70.71;101492.20;1797433;79;25739;-60
2021/08/23 01:51:01;;;;;;;11.60;7.03;;;;;;;19.77;71.44;101483.30;1796295;79;25750;-60
2021/08/23 01:53:28;;;;;;;12.73;7.40;;;;;;;19.71;71.49;101476.70;1794586;79;25712;-59
2021/08/23 01:55:55;;;;;;;13.03;6.97;;;;;;;19.68;72.25;101469.70;1797303;79;27468;-60
2021/08/23 01:58:21;;;;;;;31.27;8.13;;;;;;;19.65;71.67;101476.03;1787030;79;26545;-60
2021/08/23 02:00:49;;;;;;;18.65;7.80;;;;;;;19.64;71.83;101468.38;1785850;80;25764;-60
2021/08/23 02:03:19;;;;;;;17.67;7.33;;;;;;;19.68;72.15;101470.23;1783426;80;26159;-60
2021/08/23 02:05:46;;;;;;;13.83;7.03;;;;;;;19.71;72.19;101474.81;1785429;80;26509;-60
2021/08/23 02:08:15;;;;;;;11.95;6.12;;;;;;;19.70;71.84;101475.00;1785796;80;27357;-62
2021/08/23 02:10:42;;;;;;;11.93;7.05;;;;;;;19.69;72.22;101476.86;1785172;80;25929;-60
2021/08/23 02:13:10;;;;;;;9.75;6.33;;;;;;;19.75;72.77;101479.92;1786393;80;25804;-59
2021/08/23 02:15:37;;;;;;;15.90;6.37;;;;;;;19.78;72.47;101477.67;1786318;80;25802;-60
2021/08/23 02:18:04;;;;;;;12.60;6.30;;;;;;;19.83;72.92;101473.05;1785702;80;25797;-61
2021/08/23 02:20:31;;;;;;;12.47;6.30;;;;;;;19.84;72.52;101466.02;1785593;80;27376;-58
2021/08/23 02:22:58;;;;;;;15.23;7.37;;;;;;;19.85;72.26;101465.56;1786070;80;25746;-59
2021/08/23 02:25:25;;;;;;;14.15;6.50;;;;;;;19.89;72.28;101462.78;1786494;80;25767;-58
2021/08/23 02:27:54;;;;;;;10.63;6.40;;;;;;;19.93;72.34;101472.33;1786248;80;25874;-59
2021/08/23 02:30:22;;;;;;;13.90;6.90;;;;;;;19.93;72.85;101475.06;1785976;80;25793;-58
2021/08/23 02:32:50;;;;;;;13.05;7.00;;;;;;;19.85;72.70;101477.84;1785726;80;28304;-59
2021/08/23 02:35:18;;;;;;;13.00;6.90;;;;;;;19.78;73.21;101478.17;1785716;80;25785;-59
2021/08/23 02:37:45;;;;;;;11.45;6.60;;;;;;;19.68;72.60;101472.42;1786401;80;25826;-58
2021/08/23 02:40:13;;;;;;;10.05;6.35;;;;;;;19.64;72.77;101475.69;1786856;80;25806;-58
2021/08/23 02:42:41;;;;;;;14.73;6.42;;;;;;;19.63;72.84;101465.84;1786047;79;25988;-58
2021/08/23 02:45:10;;;;;;;12.70;7.00;;;;;;;19.63;73.30;101463.11;1785711;80;27504;-59
2021/08/23 02:47:37;;;;;;;12.63;7.50;;;;;;;19.63;73.70;101465.84;1773248;80;26427;-58
2021/08/23 02:50:07;;;;;;;11.88;7.28;;;;;;;19.62;73.38;101468.23;1785691;80;26391;-58
2021/08/23 02:52:34;;;;;;;16.87;8.05;;;;;;;19.64;73.55;101471.60;1784939;80;25823;-59
2021/08/23 02:55:04;;;;;;;14.03;7.58;;;;;;;19.68;74.17;101468.33;1785838;80;25860;-59
2021/08/23 02:57:31;;;;;;;12.93;7.70;;;;;;;19.70;73.93;101465.45;1789449;78;27522;-58
2021/08/23 02:59:58;;;;;;;10.78;7.55;;;;;;;19.71;73.99;101476.17;1795831;79;26295;-59
2021/08/23 03:02:25;;;;;;;12.20;7.28;;;;;;;19.73;73.87;101475.15;1796991;79;25841;-58
2021/08/23 03:04:52;;;;;;;14.70;7.58;;;;;;;19.71;73.62;101478.91;1798374;79;26628;-58
2021/08/23 03:07:19;;;;;;;12.88;7.25;;;;;;;19.65;73.28;101484.22;1797928;79;26576;-59
2021/08/23 03:09:46;;;;;;;16.00;7.45;;;;;;;19.63;73.61;101484.41;1796617;79;27523;-59
2021/08/23 03:12:12;;;;;;;14.50;6.80;;;;;;;19.66;73.94;101481.83;1796533;79;25754;-60
2021/08/23 03:14:40;;;;;;;17.32;7.55;;;;;;;19.70;74.04;101485.92;1797935;79;25836;-59
2021/08/23 03:17:07;;;;;;;11.15;7.67;;;;;;;19.71;74.02;101488.45;1797755;79;26171;-60
2021/08/23 03:19:34;;;;;;;10.68;6.55;;;;;;;19.74;74.06;101490.50;1797064;79;26561;-60
2021/08/23 03:22:01;;;;;;;12.47;6.12;;;;;;;19.75;74.06;101488.95;1796169;79;28144;-59
2021/08/23 03:24:28;;;;;;;12.20;6.83;;;;;;;19.77;74.84;101484.66;1795633;79;25816;-61
2021/08/23 03:26:56;;;;;;;11.70;7.10;;;;;;;19.64;74.40;101487.48;1796221;79;25770;-59
2021/08/23 03:29:23;;;;;;;12.80;6.58;;;;;;;19.55;74.42;101485.30;1797551;78;25821;-59
2021/08/23 03:31:50;;;;;;;10.43;7.08;;;;;;;19.56;74.53;101490.25;1798270;79;25772;-60
2021/08/23 03:34:18;;;;;;;12.23;7.28;;;;;;;19.60;74.74;101485.28;1797998;79;28583;-60
2021/08/23 03:36:46;;;;;;;12.47;6.85;;;;;;;19.65;74.76;101485.59;1798401;79;25794;-59
2021/08/23 03:39:14;;;;;;;11.60;6.95;;;;;;;19.68;74.68;101483.34;1798190;79;25751;-59
2021/08/23 03:41:41;;;;;;;8.25;6.83;;;;;;;19.69;74.47;101480.95;1798037;79;25940;-60
2021/08/23 03:44:08;;;;;;;11.68;6.70;;;;;;;19.73;74.43;101485.53;1798168;79;25745;-59
2021/08/23 03:46:36;;;;;;;15.55;6.87;;;;;;;19.76;74.41;101485.72;1797963;79;27499;-59
2021/08/23 03:49:04;;;;;;;11.35;7.00;;;;;;;19.77;74.58;101484.16;1797688;79;25704;-60
2021/08/23 03:51:31;;;;;;;9.43;6.50;;;;;;;19.75;74.05;101482.13;1797114;79;25790;-59
2021/08/23 03:54:05;;;;;;;20.10;7.03;;;;;;;19.80;73.83;101484.31;1797498;79;26492;-61
2021/08/23 03:56:44;;;;;;;14.07;6.58;;;;;;;19.79;73.93;101481.24;1795642;79;25882;-60
2021/08/23 03:59:11;;;;;;;8.95;6.50;;;;;;;19.83;73.84;101482.59;1798221;79;27495;-60
2021/08/23 04:01:39;;;;;;;10.15;6.90;;;;;;;19.85;73.56;101492.86;1799130;79;25890;-59
2021/08/23 04:04:05;;;;;;;16.70;7.25;;;;;;;19.86;73.42;101491.30;1798933;79;25786;-60
2021/08/23 04:06:32;;;;;;;12.60;8.38;;;;;;;19.87;73.33;101493.51;1799070;79;26450;-60
2021/08/23 04:08:59;;;;;;;10.40;6.67;;;;;;;19.91;73.69;101490.77;1799070;79;25841;-59
2021/08/23 04:11:26;;;;;;;12.37;7.10;;;;;;;19.92;73.55;101491.11;1798712;79;27478;-59
2021/08/23 04:13:53;;;;;;;12.40;6.20;;;;;;;19.94;73.42;101492.28;1799062;79;25940;-59
2021/08/23 04:16:20;;;;;;;8.80;5.90;;;;;;;19.96;73.43;101493.79;1799234;79;25787;-59
2021/08/23 04:18:48;;;;;;;14.70;6.05;;;;;;;19.96;73.18;101496.52;1799022;79;25862;-59
2021/08/23 04:21:15;;;;;;;11.80;6.42;;;;;;;19.97;73.05;101491.92;1799275;79;25793;-60
2021/08/23 04:23:42;;;;;;;8.03;5.47;;;;;;;19.98;73.11;101495.83;1791892;79;27458;-59
2021/08/23 04:26:09;;;;;;;11.38;5.45;;;;;;;19.96;72.67;101495.16;1783408;80;25697;-59
2021/08/23 04:28:36;;;;;;;13.03;6.20;;;;;;;19.94;72.24;101497.24;1776599;79;25751;-60
2021/08/23 04:31:03;;;;;;;10.53;5.95;;;;;;;19.95;72.23;101496.71;1816629;78;25738;-60
2021/08/23 04:33:30;;;;;;;14.20;6.30;;;;;;;19.96;72.13;101494.32;1816901;79;25864;-59
2021/08/23 04:35:57;;;;;;;10.08;6.15;;;;;;;19.95;72.14;101493.98;1816675;79;27401;-59
2021/08/23 04:38:24;;;;;;;11.28;6.33;;;;;;;19.96;72.19;101497.89;1816709;79;25708;-60
2021/08/23 04:40:52;;;;;;;10.72;5.70;;;;;;;19.96;72.18;101501.98;1816693;78;25478;-59
2021/08/23 04:43:19;;;;;;;11.73;5.70;;;;;;;19.94;72.01;101496.38;1815366;78;25780;-60
2021/08/23 04:45:46;;;;;;;10.45;6.33;;;;;;;19.95;71.89;101497.55;1792091;80;25814;-60
2021/08/23 04:48:13;;;;;;;12.28;8.80;;;;;;;19.96;71.88;101494.32;1811631;79;28298;-59
2021/08/23 04:50:39;;;;;;;8.78;6.12;;;;;;;19.96;71.81;101497.05;1810767;79;25877;-59
2021/08/23 04:53:06;;;;;;;10.38;6.60;;;;;;;19.98;72.09;101497.20;1791088;78;25754;-59
2021/08/23 04:55:34;;;;;;;10.55;5.58;;;;;;;19.98;71.87;101491.73;1791817;78;25794;-59
2021/08/23 04:58:01;;;;;;;11.90;5.80;;;;;;;19.92;71.94;101489.73;1792454;78;25733;-59
2021/08/23 05:00:28;;;;;;;11.75;5.25;;;;;;;19.91;71.85;101482.58;1792433;80;27517;-59
2021/08/23 05:02:55;;;;;;;16.70;5.67;;;;;;;19.93;71.94;101479.16;1753104;80;26357;-59
2021/08/23 05:05:23;;;;;;;8.65;5.65;;;;;;;19.95;71.56;101476.23;1792411;78;25514;-59
2021/08/23 05:07:49;;;;;;;9.93;5.10;;;;;;;19.94;71.57;101479.49;1753468;80;25781;-59
2021/08/23 05:10:17;;;;;;;6.97;5.28;;;;;;;19.95;71.93;101481.16;1792531;78;25834;-59
2021/08/23 05:12:43;;;;;;;9.93;5.45;;;;;;;19.98;71.98;101487.64;1753451;80;27452;-59
2021/08/23 05:15:11;;;;;;;10.40;4.83;;;;;;;20.03;71.96;101487.09;1792570;78;25758;-60
2021/08/23 05:17:38;;;;;;;12.60;5.12;;;;;;;20.09;71.86;101488.25;1753739;80;25689;-60
2021/08/23 05:20:06;;;;;;;6.15;4.58;;;;;;;20.16;71.87;101491.95;1792853;80;26481;-60
2021/08/23 05:22:38;;;;;;;9.23;4.92;;;;;;;20.20;71.78;101483.73;1753503;81;25768;-59
2021/08/23 05:25:08;;;;;;;13.15;5.08;;;;;;;20.17;70.98;101482.20;1795631;79;27449;-59
2021/08/23 05:27:35;;;;;;;9.53;5.80;;;;;;;20.13;70.69;101475.42;1795073;79;25842;-60
2021/08/23 05:30:06;;;;;;;12.05;6.20;;;;;;;20.17;71.04;101483.56;1771165;81;25708;-60
2021/08/23 05:32:33;;;;;;;10.55;5.47;;;;;;;20.22;71.06;101476.19;1771246;79;25782;-59
2021/08/23 05:35:00;;;;;;;8.40;5.05;;;;;;;20.29;70.97;101479.05;1770810;81;25817;-59
2021/08/23 05:37:27;;;;;;;11.78;5.83;;;;;;;20.32;70.60;101482.25;1770776;81;27478;-60
2021/08/23 05:39:54;;;;;;;12.55;5.62;;;;;;;20.37;70.59;101478.14;1770740;81;25806;-59
2021/08/23 05:42:21;;;;;;;12.28;6.50;;;;;;;20.42;70.54;101487.48;1770930;81;25480;-60
2021/08/23 05:44:48;;;;;;;9.63;6.08;;;;;;;20.47;70.52;101486.41;1770899;79;25722;-58
2021/08/23 05:47:15;;;;;;;7.05;5.67;;;;;;;20.53;70.42;101483.98;1792193;79;25742;-59
2021/08/23 05:49:42;;;;;;;9.05;5.40;;;;;;;20.57;70.13;101473.86;1800297;79;27475;-59
2021/08/23 05:52:09;;;;;;;17.07;5.95;;;;;;;20.62;69.90;101481.47;1769662;81;26182;-59
2021/08/23 05:54:39;;;;;;;8.23;5.17;;;;;;;20.69;69.82;101481.59;1769899;81;25768;-60
2021/08/23 05:57:12;;;;;;;8.75;4.95;;;;;;;20.74;69.53;101482.77;1769131;81;25859;-59
2021/08/23 05:59:50;;;;;;;9.75;5.20;;;;;;;20.81;69.54;101485.61;1762301;81;25893;-61
2021/08/23 06:02:29;;;;;;;11.48;5.00;;;;;;;20.89;69.65;101483.29;1739714;81;26303;-61
2021/08/23 06:05:10;;;;;;;9.07;5.20;;;;;;;20.99;69.20;101477.03;1760438;81;25875;-60
2021/08/23 06:07:46;;;;;;;;;;;;;;;21.06;69.10;101475.77;1770842;81;25830;-58
2021/08/23 06:10:13;;;;;;;9.45;5.53;;;;;;;21.04;67.69;101481.94;1769835;81;26528;-59
2021/08/23 06:12:41;;;;;;;11.90;5.22;;;;;;;21.01;68.16;101480.96;1769615;81;25849;-59
2021/08/23 06:15:10;;;;;;;12.85;5.78;;;;;;;21.03;68.17;101484.33;1769795;81;28192;-59
2021/08/23 06:17:37;;;;;;;11.90;5.20;;;;;;;21.09;68.37;101480.86;1769605;81;26608;-59
2021/08/23 06:20:06;;;;;;;7.00;5.00;;;;;;;21.14;68.24;101478.40;1769880;81;26475;-59
2021/08/23 06:22:36;;;;;;;8.83;4.92;;;;;;;21.26;68.31;101480.13;1758365;80;26393;-59
2021/08/23 06:25:02;;;;;;;8.75;5.05;;;;;;;21.40;68.11;101481.16;1724930;81;25906;-59
2021/08/23 06:27:29;;;;;;;10.45;5.70;;;;;;;21.45;67.13;101487.42;1751585;81;27925;-59
2021/08/23 06:29:56;;;;;;;10.13;6.22;;;;;;;21.48;66.93;101476.11;1766395;81;25805;-59
2021/08/23 06:32:23;;;;;;;9.65;5.05;;;;;;;21.55;66.45;101473.79;1766660;81;25806;-59
2021/08/23 06:34:50;;;;;;;9.20;6.05;;;;;;;21.57;65.57;101473.59;1766381;81;26449;-59
2021/08/23 06:37:18;;;;;;;8.35;5.67;;;;;;;21.56;65.75;101468.61;1766773;81;25797;-59
2021/08/23 06:39:45;;;;;;;11.50;6.30;;;;;;;21.61;65.51;101469.97;1766780;81;27440;-59
2021/08/23 06:42:12;;;;;;;9.45;6.20;;;;;;;21.64;65.12;101474.54;1766478;81;25871;-59
2021/08/23 06:44:40;;;;;;;7.97;5.75;;;;;;;21.71;64.23;101476.83;1765750;81;25745;-59
2021/08/23 06:47:07;;;;;;;10.88;6.22;;;;;;;21.69;63.96;101476.20;1766704;81;25848;-60
2021/08/23 06:49:34;;;;;;;14.33;6.45;;;;;;;21.68;64.01;101474.50;1766889;80;25807;-59
2021/08/23 06:52:01;;;;;;;14.18;6.45;;;;;;;21.73;64.05;101477.48;1766611;81;27492;-59
2021/08/23 06:54:28;;;;;;;8.55;5.97;;;;;;;21.73;63.87;101472.02;1766935;81;25815;-60
2021/08/23 06:56:55;;;;;;;11.53;6.28;;;;;;;21.74;63.99;101475.59;1764734;81;25731;-60
2021/08/23 06:59:23;;;;;;;12.03;6.83;;;;;;;21.70;63.32;101475.66;1792874;77;26568;-59
2021/08/23 07:01:50;;;;;;;14.50;6.08;;;;;;;21.62;63.53;101473.05;1804972;78;25838;-59
2021/08/23 07:04:17;;;;;;;13.35;6.35;;;;;;;21.61;63.83;101473.55;1804966;79;27529;-59
2021/08/23 07:06:44;;;;;;;20.77;6.30;;;;;;;21.57;64.04;101467.58;1805052;78;25801;-59
2021/08/23 07:09:11;;;;;;;19.55;6.28;;;;;;;21.57;64.08;101473.59;1805114;78;25750;-59
2021/08/23 07:11:38;;;;;;;11.25;6.28;;;;;;;21.56;64.29;101473.25;1804810;79;26423;-59
2021/08/23 07:14:05;;;;;;;8.40;6.37;;;;;;;21.55;63.71;101471.55;1805031;79;26555;-59
2021/08/23 07:16:35;;;;;;;12.35;6.17;;;;;;;21.52;63.80;101478.27;1805138;78;26898;-59
2021/08/23 07:19:03;;;;;;;14.80;6.85;;;;;;;21.57;64.19;101468.11;1804969;79;25891;-59
2021/08/23 07:21:30;;;;;;;10.43;5.95;;;;;;;21.61;64.23;101466.70;1805113;79;25734;-60
2021/08/23 07:23:57;;;;;;;13.20;6.28;;;;;;;21.68;63.61;101467.66;1805044;79;25823;-59
2021/08/23 07:26:24;;;;;;;8.85;6.03;;;;;;;21.72;64.00;101467.58;1805002;79;25716;-59
2021/08/23 07:28:51;;;;;;;9.98;6.33;;;;;;;21.79;63.83;101466.79;1806715;79;27181;-59
2021/08/23 07:31:18;;;;;;;12.20;6.33;;;;;;;21.84;63.69;101465.70;1787933;80;25839;-59
2021/08/23 07:33:45;;;;;;;8.53;6.22;;;;;;;21.86;63.32;101461.72;1788280;80;25688;-59
2021/08/23 07:36:12;;;;;;;10.60;6.75;;;;;;;21.92;63.35;101462.00;1788172;80;25826;-59
2021/08/23 07:38:39;;;;;;;9.30;6.45;;;;;;;22.00;63.41;101459.14;1788120;80;26586;-59
2021/08/23 07:41:06;;;;;;;12.10;6.37;;;;;;;22.04;63.51;101461.80;1773378;80;28148;-59
2021/08/23 07:43:32;;;;;;;13.45;6.08;;;;;;;22.10;63.71;101461.00;1766539;79;25895;-60
2021/08/23 07:45:59;;;;;;;9.88;6.58;;;;;;;22.13;63.31;101452.94;1785490;80;25885;-60
2021/08/23 07:48:26;;;;;;;12.18;6.65;;;;;;;22.17;63.46;101455.59;1781430;79;25814;-59
2021/08/23 07:51:00;;;;;;;9.20;5.75;;;;;;;22.26;63.81;101449.47;1776518;79;26455;-60
2021/08/23 07:53:31;;;;;;;13.55;5.30;;;;;;;22.34;63.28;101452.06;1790326;79;27503;-62
2021/08/23 07:56:08;;;;;;;10.70;5.73;;;;;;;22.39;63.37;101459.16;1791801;79;25878;-62
2021/08/23 07:58:37;;;;;;;11.75;5.00;;;;;;;22.50;63.49;101455.08;1792672;79;25883;-59
2021/08/23 08:01:04;;;;;;;11.05;5.53;;;;;;;22.64;63.29;101454.13;1783288;78;25866;-59
2021/08/23 08:03:31;;;;;;;16.23;5.35;;;;;;;22.76;62.59;101457.15;1781279;79;25895;-60
2021/08/23 08:05:58;;;;;;;10.53;5.72;;;;;;;22.88;62.55;101450.57;1784842;79;28229;-60
2021/08/23 08:08:25;;;;;;;16.05;5.90;;;;;;;23.04;61.98;101444.45;1786527;79;25813;-60
2021/08/23 08:10:51;;;;;;;8.10;5.37;;;;;;;23.17;61.65;101448.62;1779108;79;25850;-60
2021/08/23 08:13:18;;;;;;;12.03;4.80;;;;;;;23.29;60.69;101444.29;1758255;79;26438;-59
2021/08/23 08:15:45;;;;;;;14.90;5.83;;;;;;;23.39;60.75;101449.92;1780815;79;25855;-61
2021/08/23 08:18:12;;;;;;;16.00;6.03;;;;;;;23.52;60.70;101449.95;1786936;79;27503;-61
2021/08/23 08:20:38;;;;;;;8.10;5.17;;;;;;;23.66;60.20;101445.89;1762167;79;25815;-61
2021/08/23 08:23:06;;;;;;;11.18;5.65;;;;;;;23.80;59.86;101446.77;1790896;79;25739;-61
2021/08/23 08:25:33;;;;;;;10.05;5.25;;;;;;;23.89;59.17;101440.03;1794974;79;25833;-60
2021/08/23 08:28:00;;;;;;;10.10;5.75;;;;;;;23.99;59.50;101438.27;1798980;78;26522;-60
2021/08/23 08:30:27;;;;;;;18.62;5.28;;;;;;;24.11;59.21;101435.73;1804251;78;27462;-61
2021/08/23 08:32:54;;;;;;;12.73;5.67;;;;;;;24.27;59.00;101435.86;1783857;79;26461;-61
2021/08/23 08:35:22;;;;;;;12.05;5.97;;;;;;;24.45;58.36;101437.44;1771538;79;25798;-61
2021/08/23 08:37:49;;;;;;;10.30;5.20;;;;;;;24.61;57.34;101429.80;1773192;79;26495;-61
2021/08/23 08:40:16;;;;;;;11.48;5.00;;;;;;;24.81;56.89;101427.03;1765094;80;25804;-61
2021/08/23 08:42:43;;;;;;;12.55;5.70;;;;;;;25.02;55.24;101427.28;1757854;80;27468;-61
2021/08/23 08:45:12;;;;;;;14.18;5.20;;;;;;;25.17;55.68;101428.40;1759408;80;25808;-60
2021/08/23 08:47:42;;;;;;;23.20;5.67;;;;;;;25.34;54.96;101430.66;1762320;80;26820;-61
2021/08/23 08:50:14;;;;;;;8.63;4.78;;;;;;;25.50;54.86;101425.21;1769425;79;27018;-61
2021/08/23 08:52:45;;;;;;;13.60;5.08;;;;;;;25.68;53.53;101425.87;1769163;79;25767;-61
2021/08/23 08:55:14;;;;;;;14.73;5.58;;;;;;;25.83;53.33;101426.91;1784523;79;27454;-60
2021/08/23 08:57:45;;;;;;;12.47;5.22;;;;;;;25.97;51.44;101426.28;1790598;79;25971;-61
2021/08/23 09:00:13;;;;;;;11.75;4.75;;;;;;;26.12;52.02;101430.13;1778999;80;25893;-62
2021/08/23 09:02:53;;;;;;;12.75;4.60;;;;;;;26.30;52.30;101427.44;1820559;78;25743;-62
2021/08/23 09:05:20;;;;;;;15.00;5.70;;;;;;;26.46;51.05;101426.02;1770334;79;25814;-62
2021/08/23 09:07:50;;;;;;;7.17;4.58;;;;;;;26.67;50.33;101423.92;1792195;79;27440;-61
2021/08/23 09:10:22;;;;;;;10.85;5.30;;;;;;;26.81;51.01;101417.20;1791467;78;25742;-61
2021/08/23 09:13:13;;;;;;;10.60;4.78;;;;;;;27.01;50.24;101414.20;1797514;79;25814;-59
2021/08/23 09:15:57;;;;;;;7.37;4.47;;;;;;;27.26;49.77;101411.88;1788954;79;26483;-60
2021/08/23 09:18:29;;;;;;;11.38;4.30;;;;;;;27.51;48.06;101410.09;1801686;79;25751;-59
2021/08/23 09:21:06;;;;;;;7.62;4.45;;;;;;;27.74;47.92;101409.33;1784676;79;27470;-60
2021/08/23 09:23:51;;;;;;;6.58;4.08;;;;;;;27.97;47.33;101396.11;1769727;81;25801;-61
2021/08/23 09:26:16;;;;;;;7.83;4.40;;;;;;;28.21;46.51;101397.02;1767512;81;25718;-61
2021/08/23 09:29:00;;;;;;;11.10;4.00;;;;;;;28.57;46.54;101402.53;1785882;79;25981;-60
2021/08/23 09:31:30;;;;;;;7.33;4.47;;;;;;;28.95;45.13;101399.80;1784664;79;25838;-61
2021/08/23 09:34:01;;;;;;;7.30;3.60;;;;;;;29.38;42.67;101392.11;1785406;79;28104;-61
2021/08/23 09:36:29;;;;;;;5.03;3.72;;;;;;;29.76;43.30;101396.67;1791664;79;25727;-61
2021/08/23 09:39:01;;;;;;;12.20;3.80;;;;;;;30.33;40.53;101404.02;1801384;79;25635;-61
2021/08/23 09:41:29;;;;;;;10.57;3.60;;;;;;;30.88;40.05;101394.54;1800303;79;25813;-62
2021/08/23 09:44:09;;;;;;;8.30;3.27;;;;;;;31.58;38.40;101393.41;1802734;79;25927;-61
2021/08/23 09:46:37;;;;;;;6.83;3.65;;;;;;;32.16;36.86;101390.05;1789515;79;27471;-61
2021/08/23 09:49:12;;;;;;;6.50;4.25;;;;;;;32.80;35.40;101391.05;1772620;79;25813;-61
2021/08/23 09:51:44;;;;;;;16.30;3.60;;;;;;;33.29;35.25;101387.58;1789361;79;25780;-61
2021/08/23 09:54:17;;;;;;;6.30;3.30;;;;;;;33.67;32.68;101389.06;1798588;79;25978;-61
2021/08/23 09:56:54;;;;;;;5.72;2.95;;;;;;;34.10;31.25;101382.41;1801850;79;25702;-61
2021/08/23 09:59:30;;;;;;;7.15;2.75;;;;;;;34.29;30.73;101381.25;1784002;79;27465;-61
2021/08/23 10:02:02;;;;;;;7.67;2.92;;;;;;;34.70;30.54;101378.36;1775159;79;25957;-61
2021/08/23 10:04:30;;;;;;;5.03;3.27;;;;;;;35.06;28.87;101379.63;1803722;78;26319;-61
2021/08/23 10:06:57;;;;;;;3.40;2.72;;;;;;;35.20;28.25;101371.44;1773947;80;25820;-61
2021/08/23 10:09:28;;;;;;;9.95;2.50;;;;;;;35.43;28.71;101373.30;1789812;78;25754;-61
2021/08/23 10:11:59;;;;;;;10.77;3.13;;;;;;;35.69;26.81;101367.51;1779985;80;27218;-62
2021/08/23 10:14:27;;;;;;;11.85;3.12;;;;;;;36.10;27.57;101361.55;1781837;79;25795;-62
2021/08/23 10:16:54;;;;;;;5.80;2.50;;;;;;;36.44;26.58;101367.69;1781592;80;25780;-62
2021/08/23 10:19:21;;;;;;;8.85;2.60;;;;;;;36.69;26.24;101374.11;1803875;79;25730;-62
2021/08/23 10:21:51;;;;;;;5.35;2.52;;;;;;;36.74;25.47;101385.25;1811766;79;26112;-62
2021/08/23 10:24:30;;;;;;;6.75;3.33;;;;;;;36.80;24.88;101375.63;1814222;77;28137;-62
2021/08/23 10:26:58;;;;;;;4.75;2.40;;;;;;;36.84;25.19;101383.45;1807394;79;26221;-61
2021/08/23 10:29:29;;;;;;;3.27;2.72;;;;;;;36.88;24.91;101372.73;1814615;78;25737;-62
2021/08/23 10:32:00;;;;;;;7.17;2.75;;;;;;;37.05;24.36;101361.05;1798506;78;25782;-60
2021/08/23 10:34:30;;;;;;;7.33;2.52;;;;;;;37.12;24.25;101363.45;1773431;80;25807;-61
2021/08/23 10:36:58;;;;;;;7.42;2.98;;;;;;;37.20;24.13;101373.17;1789866;78;27858;-61
2021/08/23 10:39:27;;;;;;;5.97;3.08;;;;;;;37.36;24.31;101377.41;1790081;80;25787;-61
2021/08/23 10:41:57;;;;;;;12.37;3.25;;;;;;;37.52;24.22;101380.85;1789889;78;25779;-62
2021/08/23 10:44:31;;;;;;;7.28;3.17;;;;;;;37.80;24.95;101369.73;1783329;79;25748;-62
2021/08/23 10:47:14;;;;;;;21.27;3.50;;;;;;;38.15;24.48;101365.19;1812934;78;25725;-63
2021/08/23 10:49:47;;;;;;;16.45;3.15;;;;;;;38.40;22.55;101358.86;1771861;80;27516;-63
2021/08/23 10:52:17;;;;;;;176.27;12.28;;;;;;;38.38;22.17;101355.52;1803213;78;25772;-62
2021/08/23 10:54:48;;;;;;;3.25;2.15;;;;;;;38.40;22.25;101356.88;1801686;79;25850;-61
2021/08/23 10:57:21;;;;;;;18.87;2.80;;;;;;;38.55;21.57;101357.72;1814225;79;25777;-61
2021/08/23 10:59:58;;;;;;;14.75;3.10;;;;;;;38.57;22.34;101355.41;1814174;79;25725;-62
2021/08/23 11:02:32;;;;;;;17.48;3.90;;;;;;;38.81;21.94;101360.28;1806526;79;28415;-62
2021/08/23 11:05:09;;;;;;;11.33;2.87;;;;;;;39.12;21.54;101344.69;1779175;80;25819;-62
2021/08/23 11:07:40;;;;;;;16.12;2.77;;;;;;;39.39;21.23;101342.95;1786165;80;26164;-62
2021/08/23 11:10:17;;;;;;;11.10;2.60;;;;;;;39.60;21.30;101338.45;1783955;80;25991;-62
2021/08/23 11:12:58;;;;;;;20.65;2.65;;;;;;;39.74;21.06;101339.00;1783520;80;25984;-62
2021/08/23 11:15:32;;;;;;;5.15;2.25;;;;;;;39.89;20.85;101342.80;1783965;80;28314;-62
2021/08/23 11:18:07;;;;;;;8.58;2.30;;;;;;;40.03;20.96;101333.45;1783710;80;25763;-63
2021/08/23 11:20:38;;;;;;;4.60;2.20;;;;;;;40.23;20.35;101330.66;1792688;78;25757;-62
2021/08/23 11:23:09;;;;;;;10.53;2.75;;;;;;;40.34;20.18;101336.82;1789034;79;25769;-61
2021/08/23 11:25:43;;;;;;;7.37;2.97;;;;;;;40.50;20.53;101336.62;1783375;80;25761;-62
2021/08/23 11:28:17;;;;;;;14.30;3.00;;;;;;;40.67;20.28;101332.20;1787866;79;27473;-61